sensor_id;sensor_type;location;lat;lon;timestamp;P1;durP1;ratioP1;P2;durP2;ratioP2
26824;SDS011;14402;48.178;11.566;2023-08-31T00:00:24;1.5;;;0.9;;
26824;SDS011;14402;48.178;11.566;2023-08-31T00:00:54;1.3;;;0.9;;
26824;SDS011;14402;48.178;11.566;2023-08-31T00:01:24;1.1;;;0.9;;
26824;SDS011;14402;48.178;11.566;2023-08-31T00:01:54;1.1;;;0.9;;
26824;SDS011;14402;48.178;11.566;2023-08-31T00:02:24;1.1;;;0.9;;
26824;SDS011;14402;48.178;11.566;2023-08-31T00:02:54;1.6;;;1.0;;
26824;SDS011;14402;48.178;11.566;2023-08-31T00:03:24;2.1;;;1.1;;
26824;SDS011;14402;48.178;11.566;2023-08-31T00:03:54;2.1;;;1.1;;
26824;SDS011;14402;48.178;11.566;2023-08-31T00:04:24;2.1;;;1.1;;
26824;SDS011;14402;48.178;11.566;2023-08-31T00:04:54;1.9;;;1.1;;
26824;SDS011;14402;48.178;11.566;2023-08-31T00:05:24;1.7;;;1.1;;
26824;SDS011;14402;48.178;11.566;2023-08-31T00:05:54;1.7;;;1.1;;
26824;SDS011;14402;48.178;11.566;2023-08-31T00:06:25;1.7;;;1.1;;
26824;SDS011;14402;48.178;11.566;2023-08-31T00:06:54;1.5;;;1.0;;
26824;SDS011;14402;48.178;11.566;2023-08-31T00:07:25;1.4;;;1.0;;
26824;SDS011;14402;48.178;11.566;2023-08-31T00:07:55;1.4;;;1.0;;
26824;SDS011;14402;48.178;11.566;2023-08-31T00:08:25;1.4;;;1.0;;
26824;SDS011;14402;48.178;11.566;2023-08-31T00:08:55;1.6;;;0.9;;
26824;SDS011;14402;48.178;11.566;2023-08-31T00:09:25;1.9;;;0.9;;
26824;SDS011;14402;48.178;11.566;2023-08-31T00:09:55;1.9;;;0.9;;
26824;SDS011;14402;48.178;11.566;2023-08-31T00:10:25;1.9;;;0.9;;
26824;SDS011;14402;48.178;11.566;2023-08-31T00:10:55;1.8;;;0.8;;
26824;SDS011;14402;48.178;11.566;2023-08-31T00:11:25;1.6;;;0.7;;
26824;SDS011;14402;48.178;11.566;2023-08-31T00:11:55;1.6;;;0.7;;
26824;SDS011;14402;48.178;11.566;2023-08-31T00:12:25;1.6;;;0.7;;
26824;SDS011;14402;48.178;11.566;2023-08-31T00:12:55;1.9;;;0.8;;
26824;SDS011;14402;48.178;11.566;2023-08-31T00:13:25;2.2;;;0.9;;
26824;SDS011;14402;48.178;11.566;2023-08-31T00:13:55;2.2;;;0.9;;
26824;SDS011;14402;48.178;11.566;2023-08-31T00:14:25;2.2;;;0.9;;
26824;SDS011;14402;48.178;11.566;2023-08-31T00:14:55;1.7;;;0.9;;
26824;SDS011;14402;48.178;11.566;2023-08-31T00:15:26;1.1;;;0.9;;
26824;SDS011;14402;48.178;11.566;2023-08-31T00:15:56;1.1;;;0.9;;
26824;SDS011;14402;48.178;11.566;2023-08-31T00:16:26;1.1;;;0.9;;
26824;SDS011;14402;48.178;11.566;2023-08-31T00:16:56;1.2;;;0.9;;
26824;SDS011;14402;48.178;11.566;2023-08-31T00:17:27;1.4;;;0.9;;
26824;SDS011;14402;48.178;11.566;2023-08-31T00:17:56;1.4;;;0.9;;
26824;SDS011;14402;48.178;11.566;2023-08-31T00:18:26;1.4;;;0.9;;
26824;SDS011;14402;48.178;11.566;2023-08-31T00:18:56;1.4;;;0.9;;
26824;SDS011;14402;48.178;11.566;2023-08-31T00:19:26;1.4;;;0.8;;
26824;SDS011;14402;48.178;11.566;2023-08-31T00:19:56;1.4;;;0.8;;
26824;SDS011;14402;48.178;11.566;2023-08-31T00:20:26;1.4;;;0.8;;
26824;SDS011;14402;48.178;11.566;2023-08-31T00:20:56;1.6;;;0.8;;
26824;SDS011;14402;48.178;11.566;2023-08-31T00:21:26;1.9;;;0.8;;
26824;SDS011;14402;48.178;11.566;2023-08-31T00:21:56;1.9;;;0.8;;
26824;SDS011;14402;48.178;11.566;2023-08-31T00:22:26;1.9;;;0.8;;
26824;SDS011;14402;48.178;11.566;2023-08-31T00:22:56;1.6;;;0.9;;
26824;SDS011;14402;48.178;11.566;2023-08-31T00:23:26;1.3;;;0.9;;
26824;SDS011;14402;48.178;11.566;2023-08-31T00:23:56;1.3;;;0.9;;
26824;SDS011;14402;48.178;11.566;2023-08-31T00:24:27;1.3;;;0.9;;
26824;SDS011;14402;48.178;11.566;2023-08-31T00:24:57;1.8;;;1.0;;
26824;SDS011;14402;48.178;11.566;2023-08-31T00:25:27;2.2;;;1.1;;
26824;SDS011;14402;48.178;11.566;2023-08-31T00:25:57;2.2;;;1.1;;
26824;SDS011;14402;48.178;11.566;2023-08-31T00:26:27;2.2;;;1.1;;
26824;SDS011;14402;48.178;11.566;2023-08-31T00:26:57;1.9;;;1.1;;
26824;SDS011;14402;48.178;11.566;2023-08-31T00:27:27;1.6;;;1.1;;
26824;SDS011;14402;48.178;11.566;2023-08-31T00:27:57;1.6;;;1.1;;
26824;SDS011;14402;48.178;11.566;2023-08-31T00:28:27;1.6;;;1.1;;
26824;SDS011;14402;48.178;11.566;2023-08-31T00:28:57;1.5;;;1.0;;
26824;SDS011;14402;48.178;11.566;2023-08-31T00:29:27;1.4;;;1.0;;
26824;SDS011;14402;48.178;11.566;2023-08-31T00:29:57;1.4;;;1.0;;
26824;SDS011;14402;48.178;11.566;2023-08-31T00:30:27;1.4;;;1.0;;
26824;SDS011;14402;48.178;11.566;2023-08-31T00:30:59;1.5;;;0.9;;
26824;SDS011;14402;48.178;11.566;2023-08-31T00:31:27;1.6;;;0.9;;
26824;SDS011;14402;48.178;11.566;2023-08-31T00:31:57;1.6;;;0.9;;
26824;SDS011;14402;48.178;11.566;2023-08-31T00:32:27;1.6;;;0.9;;
26824;SDS011;14402;48.178;11.566;2023-08-31T00:32:57;1.7;;;0.9;;
26824;SDS011;14402;48.178;11.566;2023-08-31T00:33:27;1.8;;;0.9;;
26824;SDS011;14402;48.178;11.566;2023-08-31T00:33:58;1.8;;;0.9;;
26824;SDS011;14402;48.178;11.566;2023-08-31T00:34:28;1.8;;;0.9;;
26824;SDS011;14402;48.178;11.566;2023-08-31T00:34:58;1.6;;;0.9;;
26824;SDS011;14402;48.178;11.566;2023-08-31T00:35:28;1.5;;;0.8;;
26824;SDS011;14402;48.178;11.566;2023-08-31T00:35:58;1.5;;;0.8;;
26824;SDS011;14402;48.178;11.566;2023-08-31T00:36:28;1.5;;;0.8;;
26824;SDS011;14402;48.178;11.566;2023-08-31T00:36:58;1.5;;;0.9;;
26824;SDS011;14402;48.178;11.566;2023-08-31T00:37:28;1.5;;;1.0;;
26824;SDS011;14402;48.178;11.566;2023-08-31T00:37:58;1.5;;;1.0;;
26824;SDS011;14402;48.178;11.566;2023-08-31T00:38:28;1.5;;;1.0;;
26824;SDS011;14402;48.178;11.566;2023-08-31T00:38:58;1.4;;;0.9;;
26824;SDS011;14402;48.178;11.566;2023-08-31T00:39:28;1.2;;;0.9;;
26824;SDS011;14402;48.178;11.566;2023-08-31T00:39:58;1.2;;;0.9;;
26824;SDS011;14402;48.178;11.566;2023-08-31T00:40:28;1.2;;;0.9;;
26824;SDS011;14402;48.178;11.566;2023-08-31T00:40:58;1.2;;;0.9;;
26824;SDS011;14402;48.178;11.566;2023-08-31T00:41:28;1.1;;;0.9;;
26824;SDS011;14402;48.178;11.566;2023-08-31T00:41:59;1.1;;;0.9;;
26824;SDS011;14402;48.178;11.566;2023-08-31T00:42:29;1.1;;;0.9;;
26824;SDS011;14402;48.178;11.566;2023-08-31T00:42:59;1.2;;;0.9;;
26824;SDS011;14402;48.178;11.566;2023-08-31T00:43:29;1.2;;;1.0;;
26824;SDS011;14402;48.178;11.566;2023-08-31T00:43:59;1.2;;;1.0;;
26824;SDS011;14402;48.178;11.566;2023-08-31T00:44:29;1.2;;;1.0;;
26824;SDS011;14402;48.178;11.566;2023-08-31T00:44:59;1.6;;;0.9;;
26824;SDS011;14402;48.178;11.566;2023-08-31T00:45:29;2.1;;;0.9;;
26824;SDS011;14402;48.178;11.566;2023-08-31T00:45:59;2.1;;;0.9;;
26824;SDS011;14402;48.178;11.566;2023-08-31T00:46:29;2.1;;;0.9;;
26824;SDS011;14402;48.178;11.566;2023-08-31T00:46:59;2.8;;;1.1;;
26824;SDS011;14402;48.178;11.566;2023-08-31T00:47:29;3.4;;;1.3;;
26824;SDS011;14402;48.178;11.566;2023-08-31T00:47:59;3.4;;;1.3;;
26824;SDS011;14402;48.178;11.566;2023-08-31T00:48:29;3.4;;;1.3;;
26824;SDS011;14402;48.178;11.566;2023-08-31T00:48:59;2.5;;;1.1;;
26824;SDS011;14402;48.178;11.566;2023-08-31T00:49:29;1.5;;;1.0;;
26824;SDS011;14402;48.178;11.566;2023-08-31T00:50:00;1.5;;;1.0;;
26824;SDS011;14402;48.178;11.566;2023-08-31T00:50:30;1.5;;;1.0;;
26824;SDS011;14402;48.178;11.566;2023-08-31T00:51:00;1.3;;;1.0;;
26824;SDS011;14402;48.178;11.566;2023-08-31T00:51:30;1.1;;;1.0;;
26824;SDS011;14402;48.178;11.566;2023-08-31T00:52:00;1.1;;;1.0;;
26824;SDS011;14402;48.178;11.566;2023-08-31T00:52:30;1.1;;;1.0;;
26824;SDS011;14402;48.178;11.566;2023-08-31T00:53:00;1.0;;;0.9;;
26824;SDS011;14402;48.178;11.566;2023-08-31T00:53:30;1.0;;;0.8;;
26824;SDS011;14402;48.178;11.566;2023-08-31T00:54:00;1.0;;;0.8;;
26824;SDS011;14402;48.178;11.566;2023-08-31T00:54:30;1.0;;;0.8;;
26824;SDS011;14402;48.178;11.566;2023-08-31T00:55:00;1.2;;;0.9;;
26824;SDS011;14402;48.178;11.566;2023-08-31T00:55:30;1.4;;;1.0;;
26824;SDS011;14402;48.178;11.566;2023-08-31T00:56:00;1.4;;;1.0;;
26824;SDS011;14402;48.178;11.566;2023-08-31T00:56:30;1.4;;;1.0;;
26824;SDS011;14402;48.178;11.566;2023-08-31T00:57:00;1.5;;;0.9;;
26824;SDS011;14402;48.178;11.566;2023-08-31T00:57:30;1.7;;;0.9;;
26824;SDS011;14402;48.178;11.566;2023-08-31T00:58:00;1.7;;;0.9;;
26824;SDS011;14402;48.178;11.566;2023-08-31T00:58:31;1.7;;;0.9;;
26824;SDS011;14402;48.178;11.566;2023-08-31T00:59:00;1.6;;;1.0;;
26824;SDS011;14402;48.178;11.566;2023-08-31T00:59:30;1.5;;;1.1;;
26824;SDS011;14402;48.178;11.566;2023-08-31T01:00:01;1.5;;;1.1;;
26824;SDS011;14402;48.178;11.566;2023-08-31T01:00:33;1.5;;;1.1;;
26824;SDS011;14402;48.178;11.566;2023-08-31T01:01:02;1.7;;;1.0;;
26824;SDS011;14402;48.178;11.566;2023-08-31T01:01:32;1.9;;;1.0;;
26824;SDS011;14402;48.178;11.566;2023-08-31T01:02:02;1.9;;;1.0;;
26824;SDS011;14402;48.178;11.566;2023-08-31T01:02:33;1.9;;;1.0;;
26824;SDS011;14402;48.178;11.566;2023-08-31T01:03:01;2.1;;;1.0;;
26824;SDS011;14402;48.178;11.566;2023-08-31T01:03:32;2.3;;;1.0;;
26824;SDS011;14402;48.178;11.566;2023-08-31T01:04:03;2.3;;;1.0;;
26824;SDS011;14402;48.178;11.566;2023-08-31T01:04:33;2.3;;;1.0;;
26824;SDS011;14402;48.178;11.566;2023-08-31T01:05:03;1.8;;;1.0;;
26824;SDS011;14402;48.178;11.566;2023-08-31T01:05:33;1.2;;;1.0;;
26824;SDS011;14402;48.178;11.566;2023-08-31T01:06:02;1.2;;;1.0;;
26824;SDS011;14402;48.178;11.566;2023-08-31T01:06:40;1.2;;;1.0;;
26824;SDS011;14402;48.178;11.566;2023-08-31T01:07:03;1.5;;;1.1;;
26824;SDS011;14402;48.178;11.566;2023-08-31T01:07:38;1.8;;;1.2;;
26824;SDS011;14402;48.178;11.566;2023-08-31T01:08:03;1.8;;;1.2;;
26824;SDS011;14402;48.178;11.566;2023-08-31T01:08:33;1.8;;;1.2;;
26824;SDS011;14402;48.178;11.566;2023-08-31T01:09:02;1.9;;;1.2;;
26824;SDS011;14402;48.178;11.566;2023-08-31T01:09:34;2.1;;;1.1;;
26824;SDS011;14402;48.178;11.566;2023-08-31T01:10:04;2.1;;;1.1;;
26824;SDS011;14402;48.178;11.566;2023-08-31T01:10:34;2.1;;;1.1;;
26824;SDS011;14402;48.178;11.566;2023-08-31T01:11:04;1.9;;;1.0;;
26824;SDS011;14402;48.178;11.566;2023-08-31T01:11:34;1.8;;;1.0;;
26824;SDS011;14402;48.178;11.566;2023-08-31T01:12:03;1.8;;;1.0;;
26824;SDS011;14402;48.178;11.566;2023-08-31T01:12:34;1.8;;;1.0;;
26824;SDS011;14402;48.178;11.566;2023-08-31T01:13:03;2.3;;;1.0;;
26824;SDS011;14402;48.178;11.566;2023-08-31T01:13:32;2.9;;;1.1;;
26824;SDS011;14402;48.178;11.566;2023-08-31T01:14:05;2.9;;;1.1;;
26824;SDS011;14402;48.178;11.566;2023-08-31T01:14:33;2.9;;;1.1;;
26824;SDS011;14402;48.178;11.566;2023-08-31T01:15:03;2.0;;;1.0;;
26824;SDS011;14402;48.178;11.566;2023-08-31T01:15:32;1.1;;;0.9;;
26824;SDS011;14402;48.178;11.566;2023-08-31T01:16:03;1.1;;;0.9;;
26824;SDS011;14402;48.178;11.566;2023-08-31T01:16:33;1.1;;;0.9;;
26824;SDS011;14402;48.178;11.566;2023-08-31T01:17:36;1.1;;;1.0;;
26824;SDS011;14402;48.178;11.566;2023-08-31T01:18:03;1.1;;;1.0;;
26824;SDS011;14402;48.178;11.566;2023-08-31T01:18:33;1.1;;;1.0;;
26824;SDS011;14402;48.178;11.566;2023-08-31T01:19:04;1.4;;;1.1;;
26824;SDS011;14402;48.178;11.566;2023-08-31T01:19:40;1.7;;;1.2;;
26824;SDS011;14402;48.178;11.566;2023-08-31T01:20:03;1.7;;;1.2;;
26824;SDS011;14402;48.178;11.566;2023-08-31T01:20:34;1.7;;;1.2;;
26824;SDS011;14402;48.178;11.566;2023-08-31T01:21:06;1.5;;;1.1;;
26824;SDS011;14402;48.178;11.566;2023-08-31T01:21:34;1.3;;;1.0;;
26824;SDS011;14402;48.178;11.566;2023-08-31T01:22:05;1.3;;;1.0;;
26824;SDS011;14402;48.178;11.566;2023-08-31T01:22:37;1.3;;;1.0;;
26824;SDS011;14402;48.178;11.566;2023-08-31T01:23:04;1.9;;;1.0;;
26824;SDS011;14402;48.178;11.566;2023-08-31T01:23:41;2.5;;;1.0;;
26824;SDS011;14402;48.178;11.566;2023-08-31T01:24:04;2.5;;;1.0;;
26824;SDS011;14402;48.178;11.566;2023-08-31T01:24:34;2.5;;;1.0;;
26824;SDS011;14402;48.178;11.566;2023-08-31T01:25:04;2.0;;;1.0;;
26824;SDS011;14402;48.178;11.566;2023-08-31T01:25:34;1.5;;;1.1;;
26824;SDS011;14402;48.178;11.566;2023-08-31T01:26:04;1.5;;;1.1;;
26824;SDS011;14402;48.178;11.566;2023-08-31T01:26:34;1.5;;;1.1;;
26824;SDS011;14402;48.178;11.566;2023-08-31T01:27:04;1.3;;;1.0;;
26824;SDS011;14402;48.178;11.566;2023-08-31T01:27:34;1.1;;;0.9;;
26824;SDS011;14402;48.178;11.566;2023-08-31T01:28:06;1.1;;;0.9;;
26824;SDS011;14402;48.178;11.566;2023-08-31T01:28:34;1.1;;;0.9;;
26824;SDS011;14402;48.178;11.566;2023-08-31T01:29:04;1.8;;;1.1;;
26824;SDS011;14402;48.178;11.566;2023-08-31T01:29:34;2.5;;;1.3;;
26824;SDS011;14402;48.178;11.566;2023-08-31T01:30:05;2.5;;;1.3;;
26824;SDS011;14402;48.178;11.566;2023-08-31T01:30:34;2.5;;;1.3;;
26824;SDS011;14402;48.178;11.566;2023-08-31T01:31:04;2.3;;;1.2;;
26824;SDS011;14402;48.178;11.566;2023-08-31T01:31:41;2.1;;;1.1;;
26824;SDS011;14402;48.178;11.566;2023-08-31T01:32:05;2.1;;;1.1;;
26824;SDS011;14402;48.178;11.566;2023-08-31T01:32:35;2.1;;;1.1;;
26824;SDS011;14402;48.178;11.566;2023-08-31T01:33:05;1.6;;;1.0;;
26824;SDS011;14402;48.178;11.566;2023-08-31T01:33:35;1.1;;;0.9;;
26824;SDS011;14402;48.178;11.566;2023-08-31T01:34:05;1.1;;;0.9;;
26824;SDS011;14402;48.178;11.566;2023-08-31T01:34:35;1.1;;;0.9;;
26824;SDS011;14402;48.178;11.566;2023-08-31T01:35:05;1.3;;;0.9;;
26824;SDS011;14402;48.178;11.566;2023-08-31T01:35:36;1.5;;;1.0;;
26824;SDS011;14402;48.178;11.566;2023-08-31T01:36:07;1.5;;;1.0;;
26824;SDS011;14402;48.178;11.566;2023-08-31T01:36:36;1.5;;;1.0;;
26824;SDS011;14402;48.178;11.566;2023-08-31T01:37:07;1.8;;;0.9;;
26824;SDS011;14402;48.178;11.566;2023-08-31T01:37:37;2.0;;;0.9;;
26824;SDS011;14402;48.178;11.566;2023-08-31T01:38:05;2.0;;;0.9;;
26824;SDS011;14402;48.178;11.566;2023-08-31T01:38:35;2.0;;;0.9;;
26824;SDS011;14402;48.178;11.566;2023-08-31T01:39:06;1.6;;;0.9;;
26824;SDS011;14402;48.178;11.566;2023-08-31T01:39:37;1.3;;;1.0;;
26824;SDS011;14402;48.178;11.566;2023-08-31T01:40:06;1.3;;;1.0;;
26824;SDS011;14402;48.178;11.566;2023-08-31T01:40:36;1.3;;;1.0;;
26824;SDS011;14402;48.178;11.566;2023-08-31T01:41:06;1.5;;;1.0;;
26824;SDS011;14402;48.178;11.566;2023-08-31T01:41:36;1.7;;;1.1;;
26824;SDS011;14402;48.178;11.566;2023-08-31T01:42:06;1.7;;;1.1;;
26824;SDS011;14402;48.178;11.566;2023-08-31T01:42:36;1.7;;;1.1;;
26824;SDS011;14402;48.178;11.566;2023-08-31T01:43:06;1.8;;;1.2;;
26824;SDS011;14402;48.178;11.566;2023-08-31T01:43:36;1.8;;;1.3;;
26824;SDS011;14402;48.178;11.566;2023-08-31T01:44:06;1.8;;;1.3;;
26824;SDS011;14402;48.178;11.566;2023-08-31T01:44:36;1.8;;;1.3;;
26824;SDS011;14402;48.178;11.566;2023-08-31T01:45:06;1.6;;;1.1;;
26824;SDS011;14402;48.178;11.566;2023-08-31T01:45:36;1.4;;;0.9;;
26824;SDS011;14402;48.178;11.566;2023-08-31T01:46:06;1.4;;;0.9;;
26824;SDS011;14402;48.178;11.566;2023-08-31T01:46:36;1.4;;;0.9;;
26824;SDS011;14402;48.178;11.566;2023-08-31T01:47:06;2.0;;;1.0;;
26824;SDS011;14402;48.178;11.566;2023-08-31T01:47:36;2.5;;;1.2;;
26824;SDS011;14402;48.178;11.566;2023-08-31T01:48:06;2.5;;;1.2;;
26824;SDS011;14402;48.178;11.566;2023-08-31T01:48:38;2.5;;;1.2;;
26824;SDS011;14402;48.178;11.566;2023-08-31T01:49:06;2.2;;;1.1;;
26824;SDS011;14402;48.178;11.566;2023-08-31T01:49:37;2.0;;;1.0;;
26824;SDS011;14402;48.178;11.566;2023-08-31T01:50:07;2.0;;;1.0;;
26824;SDS011;14402;48.178;11.566;2023-08-31T01:50:37;2.0;;;1.0;;
26824;SDS011;14402;48.178;11.566;2023-08-31T01:51:07;1.9;;;0.9;;
26824;SDS011;14402;48.178;11.566;2023-08-31T01:51:37;1.8;;;0.9;;
26824;SDS011;14402;48.178;11.566;2023-08-31T01:52:07;1.8;;;0.9;;
26824;SDS011;14402;48.178;11.566;2023-08-31T01:52:37;1.8;;;0.9;;
26824;SDS011;14402;48.178;11.566;2023-08-31T01:53:07;1.4;;;0.9;;
26824;SDS011;14402;48.178;11.566;2023-08-31T01:53:37;1.0;;;0.9;;
26824;SDS011;14402;48.178;11.566;2023-08-31T01:54:07;1.0;;;0.9;;
26824;SDS011;14402;48.178;11.566;2023-08-31T01:54:37;1.0;;;0.9;;
26824;SDS011;14402;48.178;11.566;2023-08-31T01:55:07;1.6;;;1.0;;
26824;SDS011;14402;48.178;11.566;2023-08-31T01:55:37;2.2;;;1.1;;
26824;SDS011;14402;48.178;11.566;2023-08-31T01:56:07;2.2;;;1.1;;
26824;SDS011;14402;48.178;11.566;2023-08-31T01:56:37;2.2;;;1.1;;
26824;SDS011;14402;48.178;11.566;2023-08-31T01:57:07;2.2;;;1.0;;
26824;SDS011;14402;48.178;11.566;2023-08-31T01:57:37;2.1;;;1.0;;
26824;SDS011;14402;48.178;11.566;2023-08-31T01:58:07;2.1;;;1.0;;
26824;SDS011;14402;48.178;11.566;2023-08-31T01:58:38;2.1;;;1.0;;
26824;SDS011;14402;48.178;11.566;2023-08-31T01:59:08;1.7;;;1.0;;
26824;SDS011;14402;48.178;11.566;2023-08-31T01:59:38;1.3;;;1.0;;
26824;SDS011;14402;48.178;11.566;2023-08-31T02:00:09;1.3;;;1.0;;
26824;SDS011;14402;48.178;11.566;2023-08-31T02:00:38;1.3;;;1.0;;
26824;SDS011;14402;48.178;11.566;2023-08-31T02:01:08;1.2;;;1.0;;
26824;SDS011;14402;48.178;11.566;2023-08-31T02:01:38;1.1;;;1.0;;
26824;SDS011;14402;48.178;11.566;2023-08-31T02:02:08;1.1;;;1.0;;
26824;SDS011;14402;48.178;11.566;2023-08-31T02:02:38;1.1;;;1.0;;
26824;SDS011;14402;48.178;11.566;2023-08-31T02:03:08;1.5;;;1.0;;
26824;SDS011;14402;48.178;11.566;2023-08-31T02:03:38;1.9;;;1.0;;
26824;SDS011;14402;48.178;11.566;2023-08-31T02:04:08;1.9;;;1.0;;
26824;SDS011;14402;48.178;11.566;2023-08-31T02:04:38;1.9;;;1.0;;
26824;SDS011;14402;48.178;11.566;2023-08-31T02:05:08;1.5;;;0.9;;
26824;SDS011;14402;48.178;11.566;2023-08-31T02:05:38;1.2;;;0.9;;
26824;SDS011;14402;48.178;11.566;2023-08-31T02:06:08;1.2;;;0.9;;
26824;SDS011;14402;48.178;11.566;2023-08-31T02:06:39;1.2;;;0.9;;
26824;SDS011;14402;48.178;11.566;2023-08-31T02:07:09;2.5;;;1.0;;
26824;SDS011;14402;48.178;11.566;2023-08-31T02:07:39;3.7;;;1.1;;
26824;SDS011;14402;48.178;11.566;2023-08-31T02:08:09;3.7;;;1.1;;
26824;SDS011;14402;48.178;11.566;2023-08-31T02:08:39;3.7;;;1.1;;
26824;SDS011;14402;48.178;11.566;2023-08-31T02:09:09;2.8;;;1.0;;
26824;SDS011;14402;48.178;11.566;2023-08-31T02:09:39;1.9;;;1.0;;
26824;SDS011;14402;48.178;11.566;2023-08-31T02:10:09;1.9;;;1.0;;
26824;SDS011;14402;48.178;11.566;2023-08-31T02:10:39;1.9;;;1.0;;
26824;SDS011;14402;48.178;11.566;2023-08-31T02:11:09;2.5;;;1.1;;
26824;SDS011;14402;48.178;11.566;2023-08-31T02:11:39;3.0;;;1.2;;
26824;SDS011;14402;48.178;11.566;2023-08-31T02:12:09;3.0;;;1.2;;
26824;SDS011;14402;48.178;11.566;2023-08-31T02:12:39;3.0;;;1.2;;
26824;SDS011;14402;48.178;11.566;2023-08-31T02:13:09;2.2;;;1.0;;
26824;SDS011;14402;48.178;11.566;2023-08-31T02:13:39;1.5;;;0.9;;
26824;SDS011;14402;48.178;11.566;2023-08-31T02:14:09;1.5;;;0.9;;
26824;SDS011;14402;48.178;11.566;2023-08-31T02:14:40;1.5;;;0.9;;
26824;SDS011;14402;48.178;11.566;2023-08-31T02:15:09;2.4;;;1.0;;
26824;SDS011;14402;48.178;11.566;2023-08-31T02:15:40;3.3;;;1.2;;
26824;SDS011;14402;48.178;11.566;2023-08-31T02:16:10;3.3;;;1.2;;
26824;SDS011;14402;48.178;11.566;2023-08-31T02:16:40;3.3;;;1.2;;
26824;SDS011;14402;48.178;11.566;2023-08-31T02:17:11;2.3;;;1.1;;
26824;SDS011;14402;48.178;11.566;2023-08-31T02:17:40;1.3;;;1.0;;
26824;SDS011;14402;48.178;11.566;2023-08-31T02:18:10;1.3;;;1.0;;
26824;SDS011;14402;48.178;11.566;2023-08-31T02:18:40;1.3;;;1.0;;
26824;SDS011;14402;48.178;11.566;2023-08-31T02:19:10;1.6;;;1.0;;
26824;SDS011;14402;48.178;11.566;2023-08-31T02:19:40;2.0;;;1.1;;
26824;SDS011;14402;48.178;11.566;2023-08-31T02:20:11;2.0;;;1.1;;
26824;SDS011;14402;48.178;11.566;2023-08-31T02:20:40;2.0;;;1.1;;
26824;SDS011;14402;48.178;11.566;2023-08-31T02:21:10;1.7;;;1.1;;
26824;SDS011;14402;48.178;11.566;2023-08-31T02:21:40;1.4;;;1.1;;
26824;SDS011;14402;48.178;11.566;2023-08-31T02:22:10;1.4;;;1.1;;
26824;SDS011;14402;48.178;11.566;2023-08-31T02:22:40;1.4;;;1.1;;
26824;SDS011;14402;48.178;11.566;2023-08-31T02:23:11;1.7;;;1.1;;
26824;SDS011;14402;48.178;11.566;2023-08-31T02:23:41;2.0;;;1.1;;
26824;SDS011;14402;48.178;11.566;2023-08-31T02:24:11;2.0;;;1.1;;
26824;SDS011;14402;48.178;11.566;2023-08-31T02:24:41;2.0;;;1.1;;
26824;SDS011;14402;48.178;11.566;2023-08-31T02:25:11;1.9;;;1.2;;
26824;SDS011;14402;48.178;11.566;2023-08-31T02:25:41;1.8;;;1.2;;
26824;SDS011;14402;48.178;11.566;2023-08-31T02:26:11;1.8;;;1.2;;
26824;SDS011;14402;48.178;11.566;2023-08-31T02:26:41;1.8;;;1.2;;
26824;SDS011;14402;48.178;11.566;2023-08-31T02:27:11;1.9;;;1.4;;
26824;SDS011;14402;48.178;11.566;2023-08-31T02:27:41;2.1;;;1.5;;
26824;SDS011;14402;48.178;11.566;2023-08-31T02:28:11;2.1;;;1.5;;
26824;SDS011;14402;48.178;11.566;2023-08-31T02:28:41;2.1;;;1.5;;
26824;SDS011;14402;48.178;11.566;2023-08-31T02:29:11;2.4;;;1.8;;
26824;SDS011;14402;48.178;11.566;2023-08-31T02:29:41;2.8;;;2.1;;
26824;SDS011;14402;48.178;11.566;2023-08-31T02:30:11;2.8;;;2.1;;
26824;SDS011;14402;48.178;11.566;2023-08-31T02:30:43;2.8;;;2.1;;
26824;SDS011;14402;48.178;11.566;2023-08-31T02:31:13;2.5;;;2.1;;
26824;SDS011;14402;48.178;11.566;2023-08-31T02:31:41;2.3;;;2.1;;
26824;SDS011;14402;48.178;11.566;2023-08-31T02:32:12;2.3;;;2.1;;
26824;SDS011;14402;48.178;11.566;2023-08-31T02:32:42;2.3;;;2.1;;
26824;SDS011;14402;48.178;11.566;2023-08-31T02:33:12;2.3;;;2.1;;
26824;SDS011;14402;48.178;11.566;2023-08-31T02:33:42;2.4;;;2.1;;
26824;SDS011;14402;48.178;11.566;2023-08-31T02:34:12;2.4;;;2.1;;
26824;SDS011;14402;48.178;11.566;2023-08-31T02:34:42;2.4;;;2.1;;
26824;SDS011;14402;48.178;11.566;2023-08-31T02:35:12;2.6;;;2.2;;
26824;SDS011;14402;48.178;11.566;2023-08-31T02:35:42;2.7;;;2.2;;
26824;SDS011;14402;48.178;11.566;2023-08-31T02:36:12;2.7;;;2.2;;
26824;SDS011;14402;48.178;11.566;2023-08-31T02:36:42;2.7;;;2.2;;
26824;SDS011;14402;48.178;11.566;2023-08-31T02:37:12;3.0;;;2.3;;
26824;SDS011;14402;48.178;11.566;2023-08-31T02:37:42;3.2;;;2.5;;
26824;SDS011;14402;48.178;11.566;2023-08-31T02:38:12;3.2;;;2.5;;
26824;SDS011;14402;48.178;11.566;2023-08-31T02:38:42;3.2;;;2.5;;
26824;SDS011;14402;48.178;11.566;2023-08-31T02:39:12;3.0;;;2.2;;
26824;SDS011;14402;48.178;11.566;2023-08-31T02:39:43;2.7;;;1.8;;
26824;SDS011;14402;48.178;11.566;2023-08-31T02:40:13;2.7;;;1.8;;
26824;SDS011;14402;48.178;11.566;2023-08-31T02:40:45;2.7;;;1.8;;
26824;SDS011;14402;48.178;11.566;2023-08-31T02:41:13;2.8;;;1.7;;
26824;SDS011;14402;48.178;11.566;2023-08-31T02:41:43;2.8;;;1.6;;
26824;SDS011;14402;48.178;11.566;2023-08-31T02:42:13;2.8;;;1.6;;
26824;SDS011;14402;48.178;11.566;2023-08-31T02:42:43;2.8;;;1.6;;
26824;SDS011;14402;48.178;11.566;2023-08-31T02:43:13;2.5;;;1.6;;
26824;SDS011;14402;48.178;11.566;2023-08-31T02:43:43;2.2;;;1.6;;
26824;SDS011;14402;48.178;11.566;2023-08-31T02:44:13;2.2;;;1.6;;
26824;SDS011;14402;48.178;11.566;2023-08-31T02:44:43;2.2;;;1.6;;
26824;SDS011;14402;48.178;11.566;2023-08-31T02:45:13;2.0;;;1.5;;
26824;SDS011;14402;48.178;11.566;2023-08-31T02:45:43;1.9;;;1.4;;
26824;SDS011;14402;48.178;11.566;2023-08-31T02:46:13;1.9;;;1.4;;
26824;SDS011;14402;48.178;11.566;2023-08-31T02:46:43;1.9;;;1.4;;
26824;SDS011;14402;48.178;11.566;2023-08-31T02:47:14;2.3;;;1.5;;
26824;SDS011;14402;48.178;11.566;2023-08-31T02:47:43;2.7;;;1.5;;
26824;SDS011;14402;48.178;11.566;2023-08-31T02:48:14;2.7;;;1.5;;
26824;SDS011;14402;48.178;11.566;2023-08-31T02:48:44;2.7;;;1.5;;
26824;SDS011;14402;48.178;11.566;2023-08-31T02:49:14;2.2;;;1.4;;
26824;SDS011;14402;48.178;11.566;2023-08-31T02:49:44;1.6;;;1.3;;
26824;SDS011;14402;48.178;11.566;2023-08-31T02:50:14;1.6;;;1.3;;
26824;SDS011;14402;48.178;11.566;2023-08-31T02:50:44;1.6;;;1.3;;
26824;SDS011;14402;48.178;11.566;2023-08-31T02:51:14;2.5;;;1.4;;
26824;SDS011;14402;48.178;11.566;2023-08-31T02:51:44;3.3;;;1.5;;
26824;SDS011;14402;48.178;11.566;2023-08-31T02:52:14;3.3;;;1.5;;
26824;SDS011;14402;48.178;11.566;2023-08-31T02:52:44;3.3;;;1.5;;
26824;SDS011;14402;48.178;11.566;2023-08-31T02:53:14;2.6;;;1.5;;
26824;SDS011;14402;48.178;11.566;2023-08-31T02:53:44;1.9;;;1.4;;
26824;SDS011;14402;48.178;11.566;2023-08-31T02:54:14;1.9;;;1.4;;
26824;SDS011;14402;48.178;11.566;2023-08-31T02:54:44;1.9;;;1.4;;
26824;SDS011;14402;48.178;11.566;2023-08-31T02:55:14;1.9;;;1.5;;
26824;SDS011;14402;48.178;11.566;2023-08-31T02:55:44;1.9;;;1.5;;
26824;SDS011;14402;48.178;11.566;2023-08-31T02:56:14;1.9;;;1.5;;
26824;SDS011;14402;48.178;11.566;2023-08-31T02:56:45;1.9;;;1.5;;
26824;SDS011;14402;48.178;11.566;2023-08-31T02:57:15;1.8;;;1.5;;
26824;SDS011;14402;48.178;11.566;2023-08-31T02:57:45;1.7;;;1.4;;
26824;SDS011;14402;48.178;11.566;2023-08-31T02:58:15;1.7;;;1.4;;
26824;SDS011;14402;48.178;11.566;2023-08-31T02:58:45;1.7;;;1.4;;
26824;SDS011;14402;48.178;11.566;2023-08-31T02:59:15;2.6;;;2.2;;
26824;SDS011;14402;48.178;11.566;2023-08-31T02:59:45;3.4;;;2.9;;
26824;SDS011;14402;48.178;11.566;2023-08-31T03:00:15;3.4;;;2.9;;
26824;SDS011;14402;48.178;11.566;2023-08-31T03:00:45;3.4;;;2.9;;
26824;SDS011;14402;48.178;11.566;2023-08-31T03:01:15;2.6;;;2.1;;
26824;SDS011;14402;48.178;11.566;2023-08-31T03:01:45;1.8;;;1.3;;
26824;SDS011;14402;48.178;11.566;2023-08-31T03:02:15;1.8;;;1.3;;
26824;SDS011;14402;48.178;11.566;2023-08-31T03:02:45;1.8;;;1.3;;
26824;SDS011;14402;48.178;11.566;2023-08-31T03:03:15;2.3;;;1.6;;
26824;SDS011;14402;48.178;11.566;2023-08-31T03:03:45;2.8;;;2.0;;
26824;SDS011;14402;48.178;11.566;2023-08-31T03:04:16;2.8;;;2.0;;